Terminal Aerodrome Forecast
Issued by NWS

Home | Current Version | Previous Version | Text Only | Print | Product List | Glossary On
Versions: 1 2 3 4 5 6 7 8 9 10 11 12 13 14
023
FTAK31 PAJN 251126
TAFASI
TAF
PASI 251126Z 2512/2612 08003KT P6SM VCSH OVC040
     FM251800 26005KT P6SM BKN050
     FM260300 30005KT P6SM BKN050=

USA.gov is the U.S. government's official web portal to all federal, state and local government web resources and services.